createdAt,value
2018-01-06T00:01:43.404Z,91.40
2018-01-06T00:04:10.901Z,91.30
2018-01-06T00:06:38.424Z,91.20
2018-01-06T00:09:05.911Z,91.10
2018-01-06T00:11:33.456Z,91.30
2018-01-06T00:14:00.950Z,91.30
2018-01-06T00:16:29.214Z,90.50
2018-01-06T00:18:57.491Z,90.60
2018-01-06T00:21:25.761Z,90.80
2018-01-06T00:23:54.048Z,91.00
2018-01-06T00:26:22.309Z,91.20
2018-01-06T00:28:49.844Z,91.20
2018-01-06T00:31:17.432Z,91.00
2018-01-06T00:33:44.948Z,90.90
2018-01-06T00:36:12.468Z,90.80
2018-01-06T00:38:39.975Z,90.90
2018-01-06T00:41:07.504Z,91.00
2018-01-06T00:43:35.042Z,90.60
2018-01-06T00:46:02.557Z,90.40
2018-01-06T00:48:30.054Z,90.50
2018-01-06T00:50:57.572Z,90.40
2018-01-06T00:53:25.177Z,90.60
2018-01-06T00:55:52.698Z,90.70
2018-01-06T00:58:20.224Z,90.70
2018-01-06T01:00:47.740Z,90.70
2018-01-06T01:03:15.232Z,91.00
2018-01-06T01:05:42.748Z,91.00
2018-01-06T01:08:11.040Z,90.50
2018-01-06T01:10:38.547Z,90.50
2018-01-06T01:13:06.080Z,90.60
2018-01-06T01:15:33.632Z,90.60
2018-01-06T01:18:01.141Z,90.40
2018-01-06T01:20:28.694Z,90.60
2018-01-06T01:22:56.192Z,90.60
2018-01-06T01:25:23.724Z,90.60
2018-01-06T01:27:51.992Z,90.40
2018-01-06T01:30:20.257Z,90.60
2018-01-06T01:35:13.744Z,90.50
2018-01-06T01:37:42.038Z,91.10
2018-01-06T01:40:09.532Z,90.70
2018-01-06T01:42:37.082Z,90.70
2018-01-06T01:45:04.603Z,90.80
2018-01-06T01:47:32.896Z,91.00
2018-01-06T01:50:00.412Z,91.00
2018-01-06T01:52:27.908Z,91.20
2018-01-06T01:54:55.431Z,91.20
2018-01-06T01:57:22.932Z,91.20
2018-01-06T01:59:50.464Z,91.30
2018-01-06T02:02:18.751Z,91.40
2018-01-06T02:04:47.025Z,91.60
2018-01-06T02:07:15.315Z,91.70
2018-01-06T02:09:42.829Z,91.70
2018-01-06T02:12:10.349Z,91.70
2018-01-06T02:14:37.875Z,92.00
2018-01-06T02:17:05.456Z,92.10
2018-01-06T02:19:32.979Z,92.20
2018-01-06T02:22:01.340Z,92.50
2018-01-06T02:24:28.832Z,92.50
2018-01-06T02:26:56.326Z,92.50
2018-01-06T02:29:23.857Z,92.50
2018-01-06T02:31:51.352Z,92.50
2018-01-06T02:34:18.846Z,92.60
2018-01-06T02:36:47.132Z,92.60
2018-01-06T02:39:14.661Z,92.60
2018-01-06T02:41:42.149Z,92.60
2018-01-06T02:44:09.648Z,92.60
2018-01-06T02:46:37.180Z,92.70
2018-01-06T02:49:04.675Z,92.70
2018-01-06T02:51:32.222Z,92.70
2018-01-06T02:53:59.808Z,92.70
2018-01-06T02:56:27.303Z,92.80
2018-01-06T02:58:54.811Z,92.90
2018-01-06T03:01:22.347Z,92.90
2018-01-06T03:03:49.837Z,92.90
2018-01-06T03:06:17.372Z,92.90
2018-01-06T03:08:44.881Z,92.90
2018-01-06T03:11:12.399Z,92.90
2018-01-06T03:13:39.933Z,93.10
2018-01-06T03:16:07.475Z,93.10
2018-01-06T03:18:35.037Z,93.10
2018-01-06T03:21:02.648Z,93.10
2018-01-06T03:23:30.147Z,93.20
2018-01-06T03:25:57.662Z,93.30
2018-01-06T03:28:25.193Z,93.40
2018-01-06T03:30:52.689Z,93.40
2018-01-06T03:33:20.962Z,93.40
2018-01-06T03:35:49.258Z,93.50
2018-01-06T03:38:16.764Z,93.50
2018-01-06T03:40:44.278Z,93.50
2018-01-06T03:43:11.812Z,93.60
2018-01-06T03:45:40.108Z,93.60
2018-01-06T03:48:07.616Z,93.50
2018-01-06T03:50:35.107Z,93.60
2018-01-06T03:53:03.397Z,93.50
2018-01-06T03:55:30.948Z,93.50
2018-01-06T03:57:58.464Z,93.40
2018-01-06T04:00:26.010Z,93.40
2018-01-06T04:02:53.530Z,93.40
2018-01-06T04:05:21.029Z,93.30
2018-01-06T04:07:48.566Z,93.10
2018-01-06T04:10:16.065Z,93.00
2018-01-06T04:12:44.324Z,92.70
2018-01-06T04:15:11.854Z,92.90
2018-01-06T04:17:39.344Z,93.00
2018-01-06T04:20:06.860Z,93.10
2018-01-06T04:22:34.356Z,93.00
2018-01-06T04:25:01.888Z,93.00
2018-01-06T04:27:29.383Z,92.90
2018-01-06T04:29:56.888Z,92.90
2018-01-06T04:32:24.416Z,93.00
2018-01-06T04:34:52.691Z,93.20
2018-01-06T04:37:21.029Z,93.30
2018-01-06T04:39:48.519Z,93.30
2018-01-06T04:42:16.796Z,93.20
2018-01-06T04:44:45.060Z,93.20
2018-01-06T04:47:12.588Z,93.20
2018-01-06T04:49:40.132Z,93.30
2018-01-06T04:52:07.620Z,93.20
2018-01-06T04:54:35.112Z,93.20
2018-01-06T04:57:02.656Z,93.20
2018-01-06T04:59:30.915Z,93.60
2018-01-06T05:01:58.412Z,93.30
2018-01-06T05:04:25.931Z,93.30
2018-01-06T05:06:53.568Z,93.40
2018-01-06T05:09:21.086Z,93.40
2018-01-06T05:11:48.580Z,93.40
2018-01-06T05:14:16.130Z,93.30
2018-01-06T05:16:43.627Z,93.20
2018-01-06T05:19:11.931Z,93.20
2018-01-06T05:21:39.447Z,92.90
2018-01-06T05:24:06.953Z,92.80
2018-01-06T05:26:34.494Z,92.80
2018-01-06T05:29:02.757Z,92.60
2018-01-06T05:31:31.023Z,92.80
2018-01-06T05:33:59.309Z,92.40
2018-01-06T05:36:27.585Z,92.40
2018-01-06T05:38:55.885Z,92.20
2018-01-06T05:41:23.375Z,92.10
2018-01-06T05:43:50.961Z,92.00
2018-01-06T05:46:18.444Z,91.90
2018-01-06T05:48:46.709Z,91.70
2018-01-06T05:51:14.995Z,91.80
2018-01-06T05:53:43.251Z,91.80
2018-01-06T05:56:10.775Z,91.80
2018-01-06T05:58:38.268Z,91.70
2018-01-06T06:01:05.816Z,91.70
2018-01-06T06:03:33.308Z,91.60
2018-01-06T06:06:01.576Z,91.60
2018-01-06T06:08:29.866Z,91.50
2018-01-06T06:10:57.366Z,91.50
2018-01-06T06:13:24.879Z,91.30
2018-01-06T06:15:52.382Z,91.40
2018-01-06T06:18:19.900Z,91.50
2018-01-06T06:20:47.388Z,91.40
2018-01-06T06:23:14.907Z,91.30
2018-01-06T06:25:42.402Z,91.30
2018-01-06T06:28:09.912Z,91.20
2018-01-06T06:30:37.442Z,91.40
2018-01-06T06:33:04.932Z,91.50
2018-01-06T06:35:32.463Z,91.60
2018-01-06T06:37:59.952Z,91.60
2018-01-06T06:40:27.463Z,91.90
2018-01-06T06:42:54.981Z,91.80
2018-01-06T06:45:22.509Z,91.90
2018-01-06T06:47:50.762Z,92.30
2018-01-06T06:50:18.257Z,92.30
2018-01-06T06:52:45.767Z,92.50
2018-01-06T06:55:13.264Z,92.60
2018-01-06T06:57:40.792Z,92.70
2018-01-06T07:00:08.403Z,92.50
2018-01-06T07:02:35.896Z,92.40
2018-01-06T07:05:03.420Z,92.40
2018-01-06T07:07:30.920Z,92.40
2018-01-06T07:09:58.436Z,92.30
2018-01-06T07:12:25.939Z,92.30
2018-01-06T07:14:53.450Z,92.20
2018-01-06T07:17:20.959Z,92.10
2018-01-06T07:19:49.233Z,92.20
2018-01-06T07:22:16.754Z,91.90
2018-01-06T07:24:44.390Z,92.20
2018-01-06T07:27:11.883Z,91.90
2018-01-06T07:29:39.400Z,91.80
2018-01-06T07:32:06.908Z,91.80
2018-01-06T07:34:34.456Z,91.70
2018-01-06T07:37:01.960Z,91.80
2018-01-06T07:39:29.463Z,91.70
2018-01-06T07:41:56.980Z,91.70
2018-01-06T07:44:24.507Z,91.70
2018-01-06T07:46:52.820Z,91.60
2018-01-06T07:49:20.315Z,91.60
2018-01-06T07:51:47.826Z,91.60
2018-01-06T07:54:15.332Z,91.60
2018-01-06T07:56:42.859Z,91.70
2018-01-06T07:59:10.397Z,91.70
2018-01-06T08:01:37.909Z,91.80
2018-01-06T08:04:05.432Z,91.60
2018-01-06T08:06:32.949Z,91.50
2018-01-06T08:09:00.470Z,91.40
2018-01-06T08:11:28.004Z,91.40
2018-01-06T08:13:55.527Z,91.50
2018-01-06T08:16:23.815Z,91.70
2018-01-06T08:18:51.335Z,91.70
2018-01-06T08:21:18.854Z,91.70
2018-01-06T08:23:46.367Z,91.70
2018-01-06T08:26:13.889Z,91.60
2018-01-06T08:28:41.412Z,91.60
2018-01-06T08:31:08.965Z,91.60
2018-01-06T08:33:36.476Z,91.70
2018-01-06T08:36:04.030Z,91.70
2018-01-06T08:38:31.524Z,91.70
2018-01-06T08:40:59.780Z,91.70
2018-01-06T08:43:27.300Z,91.60
2018-01-06T08:45:54.797Z,91.70
2018-01-06T08:48:22.317Z,91.70
2018-01-06T08:50:49.815Z,92.10
2018-01-06T08:53:17.328Z,91.70
2018-01-06T08:55:44.840Z,91.70
2018-01-06T08:58:13.140Z,91.80
2018-01-06T09:00:40.668Z,91.70
2018-01-06T09:03:08.180Z,91.70
2018-01-06T09:05:35.740Z,92.10
2018-01-06T09:08:03.272Z,91.80
2018-01-06T09:10:30.791Z,91.80
2018-01-06T09:12:58.320Z,91.80
2018-01-06T09:15:25.824Z,91.80
2018-01-06T09:17:54.137Z,91.80
2018-01-06T09:20:21.635Z,91.70
2018-01-06T09:22:49.173Z,91.70
2018-01-06T09:25:16.705Z,91.60
2018-01-06T09:27:44.480Z,91.70
2018-01-06T09:30:11.983Z,91.70
2018-01-06T09:32:39.522Z,91.60
2018-01-06T09:35:07.030Z,91.00
2018-01-06T09:37:34.537Z,90.70
2018-01-06T09:40:02.068Z,90.50
2018-01-06T09:42:29.604Z,90.40
2018-01-06T09:44:57.158Z,90.40
2018-01-06T09:47:24.660Z,90.20
2018-01-06T09:49:52.207Z,90.20
2018-01-06T09:52:19.760Z,90.00
2018-01-06T09:54:47.297Z,89.70
2018-01-06T09:57:14.882Z,89.60
2018-01-06T09:59:42.381Z,90.00
2018-01-06T10:02:10.706Z,89.00
2018-01-06T10:04:38.218Z,89.40
2018-01-06T10:07:06.499Z,89.50
2018-01-06T10:09:34.805Z,89.30
2018-01-06T10:12:02.309Z,89.10
2018-01-06T10:14:29.844Z,89.00
2018-01-06T10:16:57.360Z,89.10
2018-01-06T10:19:24.897Z,88.90
2018-01-06T10:21:52.434Z,89.00
2018-01-06T10:24:19.967Z,88.90
2018-01-06T10:26:47.514Z,89.20
2018-01-06T10:29:15.039Z,89.40
2018-01-06T10:31:42.600Z,89.40
2018-01-06T10:34:10.889Z,89.90
2018-01-06T10:36:38.466Z,89.90
2018-01-06T10:39:05.970Z,90.00
2018-01-06T10:41:33.481Z,89.80
2018-01-06T10:44:01.211Z,88.70
2018-01-06T10:46:28.796Z,87.90
2018-01-06T10:48:56.331Z,87.40
2018-01-06T10:51:23.865Z,87.30
2018-01-06T10:53:52.164Z,87.70
2018-01-06T10:56:20.741Z,86.90
2018-01-06T10:58:49.045Z,86.90
2018-01-06T11:04:15.440Z,86.70
2018-01-06T11:06:43.261Z,87.30
2018-01-06T11:09:10.792Z,87.20
2018-01-06T11:11:39.108Z,87.60
2018-01-06T11:14:06.712Z,87.60
2018-01-06T11:16:34.312Z,87.00
2018-01-06T11:19:02.954Z,85.70
2018-01-06T11:21:30.462Z,85.50
2018-01-06T11:23:57.971Z,84.70
2018-01-06T11:26:25.521Z,83.50
2018-01-06T11:28:53.053Z,82.40
2018-01-06T11:31:20.568Z,81.90
2018-01-06T11:33:48.096Z,81.40
2018-01-06T11:36:15.592Z,80.80
2018-01-06T11:38:43.110Z,81.00
2018-01-06T11:41:10.621Z,80.50
2018-01-06T11:43:38.162Z,80.30
2018-01-06T11:46:05.838Z,80.10
2018-01-06T11:48:33.408Z,79.60
2018-01-06T11:51:00.954Z,78.40
2018-01-06T11:53:28.460Z,77.90
2018-01-06T11:55:57.510Z,77.60
2018-01-06T11:58:25.015Z,77.50
2018-01-06T12:00:52.676Z,77.60
2018-01-06T12:03:20.200Z,78.00
2018-01-06T12:05:47.955Z,78.20
2018-01-06T12:08:15.733Z,78.50
2018-01-06T12:10:43.260Z,79.00
2018-01-06T12:13:10.775Z,79.00
2018-01-06T12:15:38.287Z,79.00
2018-01-06T12:18:05.802Z,76.30
2018-01-06T12:20:34.156Z,73.10
2018-01-06T12:23:01.656Z,73.00
2018-01-06T12:25:29.169Z,68.10
2018-01-06T12:27:56.721Z,65.00
2018-01-06T12:30:24.218Z,63.60
2018-01-06T12:32:52.499Z,61.10
2018-01-06T12:35:20.792Z,59.40
2018-01-06T12:37:48.304Z,59.40
2018-01-06T12:40:15.817Z,58.10
2018-01-06T12:42:43.364Z,59.90
2018-01-06T12:45:10.888Z,60.50
2018-01-06T12:47:38.393Z,60.20
2018-01-06T12:50:05.942Z,62.20
2018-01-06T12:52:33.444Z,64.60
2018-01-06T12:55:00.969Z,65.20
2018-01-06T12:57:28.468Z,66.60
2018-01-06T12:59:56.021Z,68.10
2018-01-06T13:02:23.545Z,68.90
2018-01-06T13:04:51.084Z,68.40
2018-01-06T13:07:18.692Z,69.30
2018-01-06T13:09:47.706Z,70.20
2018-01-06T13:12:16.044Z,70.20
2018-01-06T13:14:43.579Z,70.00
2018-01-06T13:17:11.117Z,70.20
2018-01-06T13:19:38.614Z,70.00
2018-01-06T13:22:06.176Z,70.70
2018-01-06T13:24:33.699Z,71.10
2018-01-06T13:27:01.230Z,71.30
2018-01-06T13:29:29.547Z,72.40
2018-01-06T13:31:57.041Z,73.10
2018-01-06T13:34:24.540Z,72.40
2018-01-06T13:36:52.066Z,73.30
2018-01-06T13:39:19.609Z,73.80
2018-01-06T13:41:47.109Z,73.90
2018-01-06T13:44:15.395Z,74.00
2018-01-06T13:46:42.948Z,74.00
2018-01-06T13:49:10.450Z,73.20
2018-01-06T13:51:37.993Z,72.80
2018-01-06T13:54:05.509Z,72.60
2018-01-06T13:56:33.795Z,73.00
2018-01-06T13:59:01.344Z,73.00
2018-01-06T14:01:29.610Z,73.50
2018-01-06T14:03:57.924Z,73.90
2018-01-06T14:06:25.425Z,73.80
2018-01-06T14:08:54.467Z,73.50
2018-01-06T14:11:22.010Z,73.50
2018-01-06T14:13:49.542Z,73.00
2018-01-06T14:16:17.086Z,71.30
2018-01-06T14:18:44.605Z,70.30
2018-01-06T14:21:12.264Z,68.00
2018-01-06T14:23:39.772Z,66.80
2018-01-06T14:26:07.290Z,66.30
2018-01-06T14:28:34.808Z,66.20
2018-01-06T14:31:03.069Z,67.70
2018-01-06T14:33:31.380Z,68.80
2018-01-06T14:35:58.890Z,68.60
2018-01-06T14:38:26.416Z,68.90
2018-01-06T14:40:53.965Z,69.00
2018-01-06T14:43:21.467Z,69.30
2018-01-06T14:45:48.973Z,69.60
2018-01-06T14:48:16.500Z,69.90
2018-01-06T14:50:44.813Z,71.40
2018-01-06T14:53:12.360Z,71.30
2018-01-06T14:55:39.860Z,71.60
2018-01-06T14:58:07.359Z,72.60
2018-01-06T15:00:35.807Z,73.80
2018-01-06T15:03:03.313Z,73.80
2018-01-06T15:05:30.827Z,74.00
2018-01-06T15:08:00.041Z,74.70
2018-01-06T15:10:28.292Z,74.90
2018-01-06T15:12:55.832Z,74.90
2018-01-06T15:15:23.324Z,75.10
2018-01-06T15:17:51.600Z,75.10
2018-01-06T15:20:19.910Z,75.90
2018-01-06T15:22:47.416Z,75.90
2018-01-06T15:25:14.942Z,76.60
2018-01-06T15:27:42.504Z,76.40
2018-01-06T15:30:10.020Z,76.50
2018-01-06T15:32:38.317Z,77.40
2018-01-06T15:35:05.861Z,77.40
2018-01-06T15:37:33.396Z,77.70
2018-01-06T15:40:01.676Z,79.50
2018-01-06T15:42:29.986Z,78.80
2018-01-06T15:44:57.485Z,78.80
2018-01-06T15:47:25.011Z,78.80
2018-01-06T15:49:52.513Z,79.10
2018-01-06T15:52:20.829Z,80.30
2018-01-06T15:54:48.348Z,79.50
2018-01-06T15:57:16.674Z,79.70
2018-01-06T15:59:44.204Z,79.70
2018-01-06T16:02:12.482Z,80.10
2018-01-06T16:04:40.061Z,80.00
2018-01-06T16:07:07.566Z,80.40
2018-01-06T16:09:35.106Z,80.50
2018-01-06T16:12:02.616Z,80.80
2018-01-06T16:14:30.125Z,81.20
2018-01-06T16:16:57.652Z,81.20
2018-01-06T16:19:25.172Z,81.50
2018-01-06T16:21:53.587Z,82.40
2018-01-06T16:24:21.117Z,82.30
2018-01-06T16:26:48.665Z,82.70
2018-01-06T16:29:16.174Z,82.70
2018-01-06T16:31:43.689Z,82.80
2018-01-06T16:34:12.019Z,82.80
2018-01-06T16:36:39.536Z,82.80
2018-01-06T16:39:07.066Z,82.60
2018-01-06T16:41:35.361Z,82.50
2018-01-06T16:44:03.641Z,82.50
2018-01-06T16:46:31.200Z,82.50
2018-01-06T16:48:58.791Z,82.50
2018-01-06T16:51:26.344Z,82.60
2018-01-06T16:53:53.881Z,83.20
2018-01-06T16:56:21.481Z,83.10
2018-01-06T16:58:48.992Z,82.80
2018-01-06T17:01:17.278Z,82.20
2018-01-06T17:03:44.822Z,82.20
2018-01-06T17:06:12.362Z,81.90
2018-01-06T17:08:40.665Z,82.20
2018-01-06T17:11:08.176Z,82.20
2018-01-06T17:13:35.714Z,82.50
2018-01-06T17:16:03.293Z,82.90
2018-01-06T17:18:30.805Z,82.80
2018-01-06T17:20:58.319Z,82.70
2018-01-06T17:23:25.868Z,82.70
2018-01-06T17:25:54.205Z,82.30
2018-01-06T17:28:21.754Z,83.30
2018-01-06T17:30:49.259Z,83.60
2018-01-06T17:33:16.781Z,83.80
2018-01-06T17:35:44.308Z,84.00
2018-01-06T17:38:12.618Z,84.40
2018-01-06T17:40:40.159Z,84.40
2018-01-06T17:43:07.725Z,84.50
2018-01-06T17:45:35.253Z,84.10
2018-01-06T17:48:03.536Z,84.20
2018-01-06T17:50:31.851Z,83.90
2018-01-06T17:52:59.347Z,83.90
2018-01-06T17:55:26.864Z,83.90
2018-01-06T17:57:54.416Z,84.20
2018-01-06T18:00:21.956Z,83.70
2018-01-06T18:02:49.477Z,83.50
2018-01-06T18:05:17.010Z,83.60
2018-01-06T18:07:44.548Z,83.80
2018-01-06T18:10:12.076Z,83.80
2018-01-06T18:12:39.604Z,83.80
2018-01-06T18:15:07.156Z,84.50
2018-01-06T18:17:34.679Z,84.40
2018-01-06T18:20:02.241Z,84.60
2018-01-06T18:22:29.752Z,84.70
2018-01-06T18:24:58.029Z,84.40
2018-01-06T18:27:26.414Z,84.20
2018-01-06T18:29:53.912Z,84.20
2018-01-06T18:32:21.459Z,83.80
2018-01-06T18:34:48.985Z,83.90
2018-01-06T18:37:17.308Z,84.50
2018-01-06T18:39:44.873Z,84.50
2018-01-06T18:42:12.379Z,84.50
2018-01-06T18:44:40.678Z,84.70
2018-01-06T18:47:08.466Z,84.70
2018-01-06T18:49:36.005Z,85.30
2018-01-06T18:52:03.521Z,85.80
2018-01-06T18:54:31.808Z,85.80
2018-01-06T18:57:00.097Z,85.20
2018-01-06T18:59:27.625Z,85.10
2018-01-06T19:01:55.459Z,84.80
2018-01-06T19:04:22.989Z,84.70
2018-01-06T19:06:50.526Z,84.60
2018-01-06T19:09:18.820Z,84.70
2018-01-06T19:11:46.424Z,84.60
2018-01-06T19:14:14.070Z,84.60
2018-01-06T19:16:41.614Z,84.50
2018-01-06T19:19:09.160Z,84.80
2018-01-06T19:21:36.720Z,85.00
2018-01-06T19:24:04.244Z,84.90
2018-01-06T19:26:32.578Z,84.90
2018-01-06T19:29:00.093Z,84.80
2018-01-06T19:31:27.637Z,84.80
2018-01-06T19:33:55.938Z,85.30
2018-01-06T19:36:23.486Z,86.10
2018-01-06T19:38:51.070Z,85.30
2018-01-06T19:41:18.717Z,86.20
2018-01-06T19:43:46.757Z,86.10
2018-01-06T19:46:15.037Z,85.80
2018-01-06T19:48:43.336Z,86.00
2018-01-06T19:51:10.898Z,85.90
2018-01-06T19:53:38.499Z,85.90
2018-01-06T19:56:06.055Z,85.80
2018-01-06T19:58:33.572Z,85.60
2018-01-06T20:01:01.968Z,85.70
2018-01-06T20:03:29.514Z,85.90
2018-01-06T20:05:57.045Z,85.80
2018-01-06T20:08:25.331Z,85.90
2018-01-06T20:10:52.865Z,85.90
2018-01-06T20:13:21.177Z,85.80
2018-01-06T20:15:48.694Z,85.50
2018-01-06T20:18:16.235Z,85.40
2018-01-06T20:20:45.375Z,86.00
2018-01-06T20:23:13.664Z,86.10
2018-01-06T20:25:41.297Z,86.10
2018-01-06T20:28:08.829Z,85.70
2018-01-06T20:30:36.421Z,85.20
2018-01-06T20:33:04.703Z,84.60
2018-01-06T20:35:32.277Z,84.50
2018-01-06T20:37:59.812Z,84.60
2018-01-06T20:40:28.109Z,84.50
2018-01-06T20:42:55.678Z,84.50
2018-01-06T20:45:23.243Z,84.30
2018-01-06T20:47:50.798Z,84.30
2018-01-06T20:50:18.334Z,84.40
2018-01-06T20:52:45.849Z,84.40
2018-01-06T20:55:13.407Z,84.50
2018-01-06T20:57:40.947Z,84.90
2018-01-06T21:00:08.515Z,85.20
2018-01-06T21:02:36.039Z,85.30
2018-01-06T21:05:03.598Z,84.70
2018-01-06T21:07:31.142Z,84.50
2018-01-06T21:09:58.674Z,84.30
2018-01-06T21:12:26.985Z,85.40
2018-01-06T21:14:54.501Z,84.60
2018-01-06T21:17:22.052Z,84.70
2018-01-06T21:19:49.598Z,84.80
2018-01-06T21:22:17.172Z,84.10
2018-01-06T21:24:44.689Z,84.20
2018-01-06T21:27:12.216Z,83.90
2018-01-06T21:29:40.566Z,84.20
2018-01-06T21:32:08.130Z,84.10
2018-01-06T21:34:35.669Z,84.00
2018-01-06T21:37:03.179Z,84.80
2018-01-06T21:39:30.706Z,84.30
2018-01-06T21:41:58.256Z,84.30
2018-01-06T21:44:25.805Z,84.30
2018-01-06T21:46:53.310Z,84.50
2018-01-06T21:49:20.813Z,84.90
2018-01-06T21:51:48.356Z,84.90
2018-01-06T21:54:15.890Z,85.10
2018-01-06T21:56:43.579Z,85.20
2018-01-06T21:59:11.101Z,85.60
2018-01-06T22:01:38.608Z,85.80
2018-01-06T22:04:06.218Z,85.80
2018-01-06T22:06:33.732Z,85.70
2018-01-06T22:09:01.288Z,85.70
2018-01-06T22:11:28.797Z,85.50
2018-01-06T22:13:56.316Z,85.40
2018-01-06T22:16:23.839Z,85.60
2018-01-06T22:18:51.359Z,86.10
2018-01-06T22:21:18.909Z,86.50
2018-01-06T22:23:47.217Z,86.20
2018-01-06T22:26:14.776Z,86.20
2018-01-06T22:28:42.286Z,86.20
2018-01-06T22:31:09.820Z,86.10
2018-01-06T22:33:37.355Z,86.00
2018-01-06T22:36:04.905Z,85.70
2018-01-06T22:38:32.430Z,86.00
2018-01-06T22:41:00.716Z,85.20
2018-01-06T22:43:28.253Z,85.20
2018-01-06T22:45:56.527Z,86.50
2018-01-06T22:48:24.841Z,86.40
2018-01-06T22:50:52.383Z,85.60
2018-01-06T22:53:19.886Z,85.50
2018-01-06T22:55:47.439Z,85.60
2018-01-06T22:58:14.952Z,85.50
2018-01-06T23:00:50.214Z,85.70
2018-01-06T23:03:17.723Z,85.70
2018-01-06T23:05:45.277Z,85.60
2018-01-06T23:08:12.972Z,85.60
2018-01-06T23:10:40.490Z,86.00
2018-01-06T23:13:08.000Z,85.70
2018-01-06T23:15:35.550Z,85.60
2018-01-06T23:18:03.100Z,85.40
2018-01-06T23:20:30.612Z,85.30
2018-01-06T23:22:58.179Z,85.10
2018-01-06T23:25:25.764Z,85.00
2018-01-06T23:27:54.069Z,85.40
2018-01-06T23:30:21.635Z,85.20
2018-01-06T23:32:49.189Z,85.90
2018-01-06T23:35:16.713Z,85.20
2018-01-06T23:37:45.071Z,85.00
2018-01-06T23:40:12.687Z,85.00
2018-01-06T23:42:40.244Z,84.80
2018-01-06T23:45:07.771Z,84.80
2018-01-06T23:47:36.051Z,84.70
2018-01-06T23:50:04.371Z,84.80
2018-01-06T23:52:31.896Z,84.70
2018-01-06T23:54:59.441Z,84.90
2018-01-06T23:57:27.730Z,85.20
2018-01-06T23:59:55.251Z,85.10
